Terminal Aerodrome Forecast
Issued by NWS Charleston, WV

Current Version | Previous Version | Text Only | Print | Product List | Glossary Off
Versions: 1 2 3 4 5 6 7 8 9 10 11 12 13 14 15 16 17 18 19 20 21 22 23 24 25 26

000
FTUS41 KRLX 050211 AAA
TAFHTS
TAF AMD
KHTS 050211Z 0502/0524 00000KT 6SM BR SCT250
     FM050600 00000KT 3SM BR SCT250
     FM050800 00000KT 1SM BR FEW001 BKN250
     FM050900 00000KT 1/2SM FG BKN001 BKN250
     FM051100 00000KT 3SM BR SCT002 BKN250
     FM051300 00000KT 6SM BR SCT100 BKN250
     FM051400 34002KT P6SM BKN100
     FM052000 VRB02KT P6SM BKN050=

USA.gov is the U.S. government's official web portal to all federal, state and local government web resources and services.